createdAt,value
2022-09-17T00:00:16.699Z,86.67
2022-09-17T00:01:16.698Z,86.96
2022-09-17T00:02:16.789Z,87.05
2022-09-17T00:03:16.786Z,87.24
2022-09-17T00:04:16.719Z,87.72
2022-09-17T00:05:16.731Z,86.96
2022-09-17T00:06:16.732Z,87.43
2022-09-17T00:07:16.739Z,87.82
2022-09-17T00:08:16.745Z,88.10
2022-09-17T00:09:16.881Z,87.91
2022-09-17T00:10:16.768Z,87.72
2022-09-17T00:11:16.765Z,88.29
2022-09-17T00:12:16.772Z,88.48
2022-09-17T00:13:16.780Z,88.20
2022-09-17T00:14:16.786Z,88.10
2022-09-17T00:15:16.795Z,88.48
2022-09-17T00:16:16.840Z,88.20
2022-09-17T00:17:16.805Z,88.58
2022-09-17T00:18:16.817Z,88.87
2022-09-17T00:19:16.826Z,88.68
2022-09-17T00:20:16.825Z,88.29
2022-09-17T00:21:16.831Z,88.48
2022-09-17T00:22:16.836Z,88.39
2022-09-17T00:23:16.852Z,88.48
2022-09-17T00:24:16.859Z,88.48
2022-09-17T00:25:16.973Z,88.48
2022-09-17T00:26:16.870Z,88.58
2022-09-17T00:27:16.871Z,88.77
2022-09-17T00:28:16.882Z,88.77
2022-09-17T00:29:16.891Z,88.77
2022-09-17T00:30:16.893Z,88.68
2022-09-17T00:31:16.975Z,88.87
2022-09-17T00:32:16.911Z,88.58
2022-09-17T00:33:16.913Z,88.58
2022-09-17T00:34:16.925Z,88.58
2022-09-17T00:35:16.930Z,88.96
2022-09-17T00:36:16.939Z,88.96
2022-09-17T00:37:16.935Z,88.58
2022-09-17T00:38:16.944Z,89.73
2022-09-17T00:39:16.949Z,89.53
2022-09-17T00:40:16.996Z,89.44
2022-09-17T00:41:17.078Z,89.06
2022-09-17T00:42:16.977Z,89.15
2022-09-17T00:43:16.982Z,89.06
2022-09-17T00:44:16.982Z,89.15
2022-09-17T00:45:16.988Z,89.53
2022-09-17T00:46:17.052Z,89.67
2022-09-17T00:47:17.003Z,89.34
2022-09-17T00:48:17.009Z,89.15
2022-09-17T00:49:17.026Z,89.48
2022-09-17T00:50:17.023Z,89.44
2022-09-17T00:51:19.659Z,89.77
2022-09-17T00:52:17.041Z,89.10
2022-09-17T00:53:17.049Z,89.67
2022-09-17T00:54:17.055Z,89.29
2022-09-17T00:55:17.064Z,89.06
2022-09-17T00:56:17.061Z,89.39
2022-09-17T00:57:17.193Z,89.87
2022-09-17T00:58:17.075Z,89.39
2022-09-17T00:59:17.110Z,89.77
2022-09-17T01:00:17.088Z,89.67
2022-09-17T01:01:17.169Z,89.48
2022-09-17T01:02:17.159Z,89.58
2022-09-17T01:03:17.111Z,89.48
2022-09-17T01:04:17.122Z,89.77
2022-09-17T01:05:17.128Z,89.67
2022-09-17T01:06:17.137Z,89.67
2022-09-17T01:07:17.154Z,90.63
2022-09-17T01:08:17.151Z,90.06
2022-09-17T01:09:17.155Z,90.06
2022-09-17T01:10:17.164Z,90.06
2022-09-17T01:11:17.169Z,90.44
2022-09-17T01:12:17.172Z,90.44
2022-09-17T01:13:17.300Z,90.53
2022-09-17T01:14:17.183Z,90.63
2022-09-17T01:15:17.196Z,90.20
2022-09-17T01:16:17.283Z,90.44
2022-09-17T01:17:17.202Z,90.34
2022-09-17T01:18:17.217Z,90.63
2022-09-17T01:19:17.223Z,90.25
2022-09-17T01:20:17.223Z,90.11
2022-09-17T01:21:17.235Z,90.73
2022-09-17T01:22:17.236Z,91.11
2022-09-17T01:23:17.244Z,91.16
2022-09-17T01:24:17.255Z,91.16
2022-09-17T01:25:17.258Z,91.02
2022-09-17T01:26:17.263Z,91.25
2022-09-17T01:27:17.273Z,91.35
2022-09-17T01:28:17.275Z,90.97
2022-09-17T01:29:17.411Z,91.83
2022-09-17T01:30:17.290Z,91.93
2022-09-17T01:31:17.405Z,92.50
2022-09-17T01:32:17.302Z,92.50
2022-09-17T01:33:17.318Z,92.40
2022-09-17T01:34:21.158Z,92.50
2022-09-17T01:35:17.332Z,93.02
2022-09-17T01:36:17.338Z,92.97
2022-09-17T01:37:17.345Z,92.88
2022-09-17T01:38:17.343Z,92.97
2022-09-17T01:39:17.350Z,92.97
2022-09-17T01:40:17.431Z,93.55
2022-09-17T01:41:17.370Z,92.88
2022-09-17T01:42:17.371Z,92.69
2022-09-17T01:43:17.380Z,93.36
2022-09-17T01:44:17.386Z,93.26
2022-09-17T01:45:17.520Z,93.74
2022-09-17T01:46:17.451Z,93.45
2022-09-17T01:47:20.938Z,93.45
2022-09-17T01:48:17.411Z,93.16
2022-09-17T01:49:17.423Z,93.74
2022-09-17T01:50:17.431Z,94.02
2022-09-17T01:51:17.842Z,94.31
2022-09-17T01:52:17.438Z,94.89
2022-09-17T01:53:17.443Z,94.70
2022-09-17T01:54:17.459Z,94.70
2022-09-17T01:55:17.457Z,94.51
2022-09-17T01:56:17.461Z,95.17
2022-09-17T01:57:17.480Z,95.07
2022-09-17T01:58:17.483Z,94.98
2022-09-17T01:59:17.491Z,95.07
2022-09-17T02:00:17.519Z,94.89
2022-09-17T02:01:17.687Z,95.75
2022-09-17T02:02:17.545Z,95.36
2022-09-17T02:03:17.511Z,95.94
2022-09-17T02:04:17.522Z,95.94
2022-09-17T02:05:17.523Z,96.03
2022-09-17T02:06:17.530Z,96.13
2022-09-17T02:07:17.544Z,95.56
2022-09-17T02:08:17.541Z,95.94
2022-09-17T02:09:21.587Z,96.22
2022-09-17T02:10:17.765Z,96.61
2022-09-17T02:11:17.572Z,96.61
2022-09-17T02:12:17.574Z,96.42
2022-09-17T02:13:17.575Z,96.61
2022-09-17T02:14:17.584Z,96.70
2022-09-17T02:15:17.595Z,96.51
2022-09-17T02:16:17.743Z,96.80
2022-09-17T02:17:17.719Z,97.47
2022-09-17T02:18:17.609Z,97.08
2022-09-17T02:19:17.615Z,97.47
2022-09-17T02:20:22.211Z,97.47
2022-09-17T02:21:17.628Z,97.75
2022-09-17T02:22:17.636Z,97.85
2022-09-17T02:23:17.642Z,97.75
2022-09-17T02:24:17.657Z,97.56
2022-09-17T02:25:17.654Z,97.99
2022-09-17T02:26:17.663Z,98.28
2022-09-17T02:27:17.667Z,98.13
2022-09-17T02:28:17.675Z,97.94
2022-09-17T02:29:17.680Z,98.09
2022-09-17T02:30:17.696Z,98.23
2022-09-17T02:31:17.753Z,98.13
2022-09-17T02:32:17.707Z,98.23
2022-09-17T02:33:17.827Z,98.23
2022-09-17T02:34:17.720Z,98.04
2022-09-17T02:35:17.720Z,98.04
2022-09-17T02:36:17.725Z,98.23
2022-09-17T02:37:17.742Z,98.13
2022-09-17T02:38:17.755Z,98.23
2022-09-17T02:39:17.756Z,98.04
2022-09-17T02:40:17.797Z,98.04
2022-09-17T02:41:17.760Z,98.04
2022-09-17T02:42:17.766Z,98.42
2022-09-17T02:43:17.779Z,98.23
2022-09-17T02:44:17.779Z,98.09
2022-09-17T02:45:17.788Z,97.90
2022-09-17T02:47:00.336Z,97.80
2022-09-17T02:48:00.359Z,97.94
2022-09-17T02:49:00.475Z,98.09
2022-09-17T02:50:00.372Z,97.75
2022-09-17T02:51:00.369Z,97.61
2022-09-17T02:52:01.181Z,97.66
2022-09-17T02:53:00.395Z,97.37
2022-09-17T02:54:00.385Z,97.08
2022-09-17T02:55:00.393Z,97.28
2022-09-17T02:56:00.407Z,97.66
2022-09-17T02:57:00.410Z,97.18
2022-09-17T02:58:00.417Z,97.08
2022-09-17T02:59:00.415Z,97.08
2022-09-17T03:00:00.445Z,97.52
2022-09-17T03:01:00.533Z,97.47
2022-09-17T03:02:00.527Z,97.47
2022-09-17T03:03:00.456Z,96.80
2022-09-17T03:04:43.106Z,96.56
2022-09-17T03:05:46.030Z,96.61
2022-09-17T03:06:43.009Z,96.80
2022-09-17T03:07:43.013Z,97.13
2022-09-17T03:08:43.025Z,96.61
2022-09-17T03:09:43.023Z,96.42
2022-09-17T03:10:43.038Z,96.32
2022-09-17T03:11:43.042Z,95.75
2022-09-17T03:12:43.051Z,96.03
2022-09-17T03:13:44.264Z,96.13
2022-09-17T03:14:43.063Z,95.27
2022-09-17T03:15:43.224Z,96.22
2022-09-17T03:16:43.076Z,95.94
2022-09-17T03:17:49.016Z,96.32
2022-09-17T03:18:43.083Z,96.22
2022-09-17T03:19:43.101Z,95.75
2022-09-17T03:21:30.767Z,96.22
2022-09-17T03:22:30.663Z,96.03
2022-09-17T03:23:30.659Z,95.94
2022-09-17T03:24:30.668Z,95.75
2022-09-17T03:25:30.674Z,95.84
2022-09-17T03:26:30.687Z,95.84
2022-09-17T03:28:18.244Z,95.94
2022-09-17T03:29:18.242Z,95.84
2022-09-17T03:30:18.249Z,95.56
2022-09-17T03:31:18.317Z,95.65
2022-09-17T03:33:00.813Z,95.75
2022-09-17T03:34:53.384Z,95.36
2022-09-17T03:35:53.387Z,95.22
2022-09-17T03:36:53.508Z,95.32
2022-09-17T03:38:35.936Z,95.36
2022-09-17T03:39:35.942Z,94.79
2022-09-17T03:40:36.058Z,95.27
2022-09-17T03:42:23.516Z,94.89
2022-09-17T03:43:23.513Z,94.89
2022-09-17T03:44:23.517Z,95.17
2022-09-17T03:45:23.525Z,95.17
2022-09-17T03:46:23.548Z,95.17
2022-09-17T03:47:23.539Z,95.36
2022-09-17T03:49:11.096Z,94.98
2022-09-17T03:50:11.112Z,95.46
2022-09-17T03:51:11.107Z,95.17
2022-09-17T03:52:11.234Z,95.17
2022-09-17T03:53:11.122Z,95.46
2022-09-17T03:54:11.128Z,94.98
2022-09-17T03:55:53.678Z,95.27
2022-09-17T03:56:53.683Z,96.13
2022-09-17T03:58:41.242Z,95.94
2022-09-17T03:59:41.256Z,96.03
2022-09-17T04:00:43.875Z,95.84
2022-09-17T04:01:41.401Z,96.13
2022-09-17T04:02:41.313Z,95.36
2022-09-17T04:03:41.287Z,96.13
2022-09-17T04:04:41.286Z,95.84
2022-09-17T04:05:41.287Z,95.84
2022-09-17T04:06:41.291Z,96.13
2022-09-17T04:07:41.413Z,96.22
2022-09-17T04:09:41.310Z,96.42
2022-09-17T04:10:41.319Z,96.89
2022-09-17T04:11:41.330Z,96.80
2022-09-17T04:12:41.331Z,96.61
2022-09-17T04:13:41.549Z,96.61
2022-09-17T04:15:23.893Z,96.80
2022-09-17T04:16:23.937Z,96.80
2022-09-17T04:17:23.905Z,96.99
2022-09-17T04:18:23.912Z,96.80
2022-09-17T04:19:23.917Z,96.51
2022-09-17T04:20:23.918Z,96.42
2022-09-17T04:21:23.927Z,96.80
2022-09-17T04:22:23.938Z,96.42
2022-09-17T04:23:24.060Z,96.51
2022-09-17T04:24:23.944Z,96.70
2022-09-17T04:25:23.958Z,96.32
2022-09-17T04:26:23.963Z,96.32
2022-09-17T04:27:23.968Z,96.32
2022-09-17T04:28:23.975Z,96.42
2022-09-17T04:29:23.982Z,96.70
2022-09-17T04:30:23.980Z,95.84
2022-09-17T04:31:24.024Z,96.03
2022-09-17T04:32:23.992Z,96.13
2022-09-17T04:33:24.009Z,96.13
2022-09-17T04:34:24.008Z,95.84
2022-09-17T04:35:24.014Z,96.13
2022-09-17T04:36:24.025Z,95.65
2022-09-17T04:37:24.027Z,95.07
2022-09-17T04:38:24.031Z,95.17
2022-09-17T04:39:24.153Z,95.36
2022-09-17T04:40:24.163Z,95.27
2022-09-17T04:41:24.060Z,95.07
2022-09-17T04:42:24.064Z,94.98
2022-09-17T04:43:24.072Z,95.07
2022-09-17T04:44:24.075Z,95.07
2022-09-17T04:45:24.085Z,95.46
2022-09-17T04:46:24.151Z,94.70
2022-09-17T04:47:24.099Z,95.07
2022-09-17T04:48:24.100Z,95.17
2022-09-17T04:49:24.111Z,95.46
2022-09-17T04:50:24.118Z,94.89
2022-09-17T04:51:24.121Z,94.98
2022-09-17T04:53:21.696Z,95.17
2022-09-17T04:54:21.700Z,95.27
2022-09-17T04:55:21.846Z,95.46
2022-09-17T04:56:21.712Z,95.46
2022-09-17T04:57:21.729Z,94.89
2022-09-17T04:58:21.733Z,94.89
2022-09-17T04:59:21.743Z,95.17
2022-09-17T05:00:21.745Z,95.27
2022-09-17T05:02:04.333Z,95.36
2022-09-17T05:03:04.301Z,95.46
2022-09-17T05:04:04.302Z,95.17
2022-09-17T05:05:04.305Z,95.17
2022-09-17T05:06:04.314Z,95.27
2022-09-17T05:07:04.327Z,95.07
2022-09-17T05:08:04.326Z,95.07
2022-09-17T05:09:04.333Z,95.07
2022-09-17T05:10:04.340Z,95.07
2022-09-17T05:11:04.461Z,94.79
2022-09-17T05:12:04.351Z,94.51
2022-09-17T05:13:04.358Z,94.70
2022-09-17T05:14:04.370Z,94.70
2022-09-17T05:15:04.379Z,94.41
2022-09-17T05:16:04.462Z,94.51
2022-09-17T05:17:04.394Z,94.70
2022-09-17T05:18:04.395Z,94.31
2022-09-17T05:19:04.397Z,94.51
2022-09-17T05:20:04.410Z,94.31
2022-09-17T05:21:04.417Z,94.41
2022-09-17T05:22:46.958Z,94.41
2022-09-17T05:23:46.971Z,93.74
2022-09-17T05:24:46.973Z,93.45
2022-09-17T05:25:46.983Z,93.84
2022-09-17T05:26:47.102Z,93.55
2022-09-17T05:27:46.990Z,93.93
2022-09-17T05:28:46.999Z,93.16
2022-09-17T05:29:47.009Z,93.36
2022-09-17T05:30:47.010Z,93.36
2022-09-17T05:31:47.105Z,93.36
2022-09-17T05:32:47.036Z,93.16
2022-09-17T05:33:47.036Z,93.07
2022-09-17T05:35:29.586Z,92.97
2022-09-17T05:36:29.585Z,93.65
2022-09-17T05:37:29.594Z,92.97
2022-09-17T05:38:33.033Z,92.88
2022-09-17T05:39:29.612Z,92.97
2022-09-17T05:40:29.681Z,92.59
2022-09-17T05:41:29.616Z,92.40
2022-09-17T05:42:29.787Z,92.50
2022-09-17T05:43:29.629Z,92.50
2022-09-17T05:44:29.636Z,92.50
2022-09-17T05:45:29.645Z,92.50
2022-09-17T05:46:29.708Z,91.93
2022-09-17T05:47:29.662Z,91.83
2022-09-17T05:48:29.672Z,91.83
2022-09-17T05:49:32.897Z,92.02
2022-09-17T05:50:29.681Z,91.93
2022-09-17T05:51:29.691Z,91.45
2022-09-17T05:53:12.231Z,91.35
2022-09-17T05:54:12.244Z,91.25
2022-09-17T05:55:12.244Z,91.68
2022-09-17T05:56:12.250Z,91.64
2022-09-17T05:57:12.264Z,90.68
2022-09-17T05:58:12.377Z,91.11
2022-09-17T05:59:12.272Z,91.11
2022-09-17T06:00:12.275Z,90.92
2022-09-17T06:01:12.292Z,90.20
2022-09-17T06:03:12.417Z,90.16
2022-09-17T06:04:12.305Z,90.34
2022-09-17T06:05:14.938Z,90.16
2022-09-17T06:06:12.319Z,90.06
2022-09-17T06:07:54.873Z,89.48
2022-09-17T06:08:54.880Z,89.87
2022-09-17T06:09:54.886Z,89.39
2022-09-17T06:10:58.949Z,89.29
2022-09-17T06:11:54.899Z,89.20
2022-09-17T06:12:54.900Z,89.29
2022-09-17T06:13:55.027Z,89.48
2022-09-17T06:14:54.919Z,88.72
2022-09-17T06:15:55.002Z,88.72
2022-09-17T06:16:54.925Z,88.62
2022-09-17T06:17:54.933Z,88.53
2022-09-17T06:18:54.939Z,88.72
2022-09-17T06:19:54.946Z,88.81
2022-09-17T06:20:54.952Z,88.62
2022-09-17T06:21:54.973Z,88.81
2022-09-17T06:22:54.973Z,88.62
2022-09-17T06:23:54.974Z,88.53
2022-09-17T06:24:54.977Z,88.29
2022-09-17T06:25:54.988Z,88.62
2022-09-17T06:26:54.999Z,88.72
2022-09-17T06:27:57.621Z,88.43
2022-09-17T06:28:55.012Z,88.43
2022-09-17T06:29:55.135Z,88.43
2022-09-17T06:30:55.018Z,87.95
2022-09-17T06:31:55.121Z,88.15
2022-09-17T06:32:55.039Z,87.86
2022-09-17T06:33:55.161Z,87.29
2022-09-17T06:34:55.052Z,86.52
2022-09-17T06:35:55.050Z,86.61
2022-09-17T06:36:55.067Z,86.61
2022-09-17T06:37:55.066Z,85.80
2022-09-17T06:38:55.079Z,86.04
2022-09-17T06:40:47.642Z,85.75
2022-09-17T06:41:50.684Z,85.75
2022-09-17T06:43:45.235Z,86.14
2022-09-17T06:44:45.236Z,86.04
2022-09-17T06:45:46.171Z,86.61
2022-09-17T06:46:45.364Z,86.23
2022-09-17T06:47:45.254Z,86.61
2022-09-17T06:49:37.831Z,86.52
2022-09-17T06:50:42.529Z,86.33
2022-09-17T06:51:37.845Z,86.23
2022-09-17T06:52:37.851Z,86.61
2022-09-17T06:53:37.857Z,85.94
2022-09-17T06:54:37.859Z,85.85
2022-09-17T06:56:25.423Z,86.61
2022-09-17T06:57:25.423Z,86.80
2022-09-17T06:58:25.437Z,86.57
2022-09-17T06:59:25.445Z,86.67
2022-09-17T07:00:25.543Z,86.61
2022-09-17T07:01:25.654Z,86.47
2022-09-17T07:02:25.614Z,87.34
2022-09-17T07:03:25.465Z,87.29
2022-09-17T07:04:25.470Z,87.57
2022-09-17T07:05:25.678Z,87.34
2022-09-17T07:06:25.491Z,87.24
2022-09-17T07:07:25.507Z,87.34
2022-09-17T07:09:10.999Z,87.48
2022-09-17T07:10:08.046Z,87.53
2022-09-17T07:11:08.062Z,87.48
2022-09-17T07:12:08.066Z,87.82
2022-09-17T07:13:08.072Z,87.82
2022-09-17T07:14:10.693Z,88.01
2022-09-17T07:15:08.080Z,88.58
2022-09-17T07:16:08.141Z,88.34
2022-09-17T07:17:08.213Z,88.24
2022-09-17T07:19:00.660Z,88.24
2022-09-17T07:20:00.668Z,88.34
2022-09-17T07:21:00.676Z,88.53
2022-09-17T07:22:00.684Z,88.34
2022-09-17T07:23:00.687Z,88.05
2022-09-17T07:24:00.693Z,88.24
2022-09-17T07:25:53.265Z,87.86
2022-09-17T07:27:35.813Z,88.05
2022-09-17T07:37:55.030Z,86.43
2022-09-17T07:38:54.916Z,86.52
2022-09-17T07:39:55.020Z,86.71
2022-09-17T07:40:54.931Z,86.14
2022-09-17T07:41:54.928Z,86.37
2022-09-17T07:42:54.946Z,86.47
2022-09-17T07:43:54.945Z,86.47
2022-09-17T07:44:57.495Z,86.85
2022-09-17T07:45:54.964Z,85.89
2022-09-17T07:46:55.038Z,85.99
2022-09-17T07:47:54.979Z,85.71
2022-09-17T07:48:54.976Z,85.51
2022-09-17T13:22:58.128Z,51.55
2022-09-17T13:23:58.029Z,51.93
2022-09-17T13:24:58.048Z,52.42
2022-09-17T13:25:58.058Z,52.89
2022-09-17T13:26:58.075Z,52.89
2022-09-17T13:27:58.103Z,53.35
2022-09-17T13:28:58.322Z,53.25
2022-09-17T13:29:58.135Z,53.45
2022-09-17T13:30:58.147Z,53.25
2022-09-17T13:31:58.171Z,53.64
2022-09-17T13:42:32.535Z,52.77
2022-09-17T13:44:30.018Z,53.16
2022-09-17T13:47:55.916Z,53.74
2022-09-17T13:48:55.940Z,53.70
2022-09-17T13:50:38.509Z,54.47
2022-09-17T13:52:41.117Z,54.77
2022-09-17T13:53:41.143Z,54.67
2022-09-17T13:54:41.152Z,54.47
2022-09-17T13:55:41.171Z,54.74
2022-09-17T13:56:41.193Z,54.74
2022-09-17T13:57:41.325Z,54.35
2022-09-17T13:58:41.219Z,54.64
2022-09-17T13:59:41.243Z,54.93
2022-09-17T14:00:41.318Z,55.22
2022-09-17T14:01:41.276Z,54.35
2022-09-17T14:02:41.329Z,54.83
2022-09-17T14:03:41.302Z,54.71
2022-09-17T14:04:41.323Z,54.42
2022-09-17T14:05:41.340Z,54.61
2022-09-17T14:06:41.346Z,54.52
2022-09-17T14:07:41.363Z,53.75
2022-09-17T14:08:41.376Z,53.82
2022-09-17T14:09:41.395Z,54.21
2022-09-17T14:10:41.406Z,54.58
2022-09-17T14:12:24.033Z,55.07
2022-09-17T14:13:24.113Z,55.26
2022-09-17T14:14:23.998Z,55.45
2022-09-17T14:15:24.020Z,55.45
2022-09-17T14:16:26.683Z,55.29
2022-09-17T14:17:24.047Z,55.57
2022-09-17T14:18:24.067Z,55.35
2022-09-17T14:19:24.068Z,55.35
2022-09-17T14:21:07.850Z,56.12
2022-09-17T14:22:06.650Z,56.70
2022-09-17T14:24:44.364Z,58.20
2022-09-17T14:25:44.334Z,58.97
2022-09-17T14:26:44.343Z,59.55
2022-09-17T14:27:44.358Z,60.12
2022-09-17T14:28:44.490Z,61.72
2022-09-17T14:29:44.385Z,61.91
2022-09-17T14:30:44.399Z,61.82
2022-09-17T14:31:44.443Z,62.01
2022-09-17T14:32:44.413Z,63.45
2022-09-17T14:33:47.053Z,63.35
2022-09-17T14:34:45.053Z,63.26
2022-09-17T14:35:44.448Z,63.80
2022-09-17T14:36:44.460Z,64.28
